createdAt,value
2023-04-16T00:02:41.355Z,1.60
2023-04-16T00:05:44.381Z,1.20
2023-04-16T00:08:47.345Z,1.60
2023-04-16T00:11:51.601Z,1.50
2023-04-16T00:14:54.360Z,2.33
2023-04-16T00:17:57.195Z,2.90
2023-04-16T00:21:00.870Z,2.63
2023-04-16T00:24:03.648Z,3.63
2023-04-16T00:27:07.758Z,3.27
2023-04-16T00:30:10.981Z,3.47
2023-04-16T00:33:13.741Z,3.53
2023-04-16T00:36:16.602Z,3.70
2023-04-16T00:39:19.443Z,3.83
2023-04-16T00:42:23.555Z,4.13
2023-04-16T00:45:26.325Z,3.80
2023-04-16T00:48:30.624Z,4.13
2023-04-16T00:51:33.498Z,4.57
2023-04-16T00:54:36.903Z,4.20
2023-04-16T00:57:41.090Z,4.33
2023-04-16T01:00:43.910Z,4.43
2023-04-16T01:03:48.662Z,4.03
2023-04-16T01:06:52.041Z,3.53
2023-04-16T01:09:55.190Z,3.97
2023-04-16T01:12:59.338Z,3.93
2023-04-16T01:16:02.366Z,3.60
2023-04-16T01:19:05.209Z,3.20
2023-04-16T01:22:09.363Z,3.33
2023-04-16T01:25:15.695Z,3.90
2023-04-16T01:28:18.575Z,2.87
2023-04-16T01:31:21.400Z,2.73
2023-04-16T01:34:24.703Z,2.57
2023-04-16T01:37:28.840Z,2.20
2023-04-16T01:40:31.714Z,2.43
2023-04-16T01:43:34.561Z,2.13
2023-04-16T01:46:38.663Z,1.80
2023-04-16T01:49:42.475Z,2.20
2023-04-16T01:52:46.750Z,2.00
2023-04-16T01:55:49.541Z,2.27
2023-04-16T01:58:52.335Z,1.37
2023-04-16T02:01:55.366Z,1.40
2023-04-16T02:04:58.485Z,1.50
2023-04-16T02:08:02.595Z,1.63
2023-04-16T02:11:05.385Z,1.20
2023-04-16T02:14:08.710Z,2.07
2023-04-16T02:17:12.123Z,1.70
2023-04-16T02:20:15.059Z,1.30
2023-04-16T02:23:19.178Z,1.87
2023-04-16T02:26:22.011Z,2.00
2023-04-16T02:29:24.953Z,2.20
2023-04-16T02:32:27.777Z,2.40
2023-04-16T02:35:30.549Z,2.70
2023-04-16T02:38:37.370Z,2.80
2023-04-16T02:41:40.271Z,3.40
2023-04-16T02:44:43.085Z,4.73
2023-04-16T02:47:45.973Z,3.90
2023-04-16T02:50:48.746Z,3.37
2023-04-16T02:53:52.871Z,3.77
2023-04-16T02:56:55.647Z,3.10
2023-04-16T02:59:58.435Z,3.47
2023-04-16T03:03:01.288Z,3.37
2023-04-16T03:06:04.188Z,2.83
2023-04-16T03:09:08.669Z,3.50
2023-04-16T03:12:11.699Z,3.50
2023-04-16T03:15:14.462Z,2.90
2023-04-16T03:18:17.274Z,3.23
2023-04-16T03:21:20.071Z,2.77
2023-04-16T03:24:24.221Z,3.13
2023-04-16T03:27:27.046Z,3.53
2023-04-16T03:30:29.856Z,3.47
2023-04-16T03:33:32.667Z,2.83
2023-04-16T03:36:35.455Z,3.10
2023-04-16T03:39:39.631Z,2.90
2023-04-16T03:42:42.397Z,3.13
2023-04-16T03:45:45.811Z,2.77
2023-04-16T03:48:48.595Z,3.67
2023-04-16T03:51:51.376Z,3.63
2023-04-16T03:54:55.505Z,3.60
2023-04-16T03:57:58.301Z,3.03
2023-04-16T04:01:01.115Z,3.63
2023-04-16T04:04:04.769Z,2.50
2023-04-16T04:07:07.788Z,3.70
2023-04-16T04:10:12.354Z,3.57
2023-04-16T04:13:15.167Z,3.30
2023-04-16T04:16:18.011Z,3.77
2023-04-16T04:19:20.842Z,3.20
2023-04-16T04:22:23.618Z,3.50
2023-04-16T04:25:27.898Z,3.73
2023-04-16T04:28:30.761Z,3.37
2023-04-16T04:31:33.660Z,3.70
2023-04-16T04:34:36.702Z,4.20
2023-04-16T04:37:39.455Z,4.17
2023-04-16T04:40:43.565Z,3.43
2023-04-16T04:43:46.395Z,3.53
2023-04-16T04:46:49.179Z,3.60
2023-04-16T04:49:51.958Z,3.63
2023-04-16T04:52:54.738Z,3.77
2023-04-16T04:56:09.271Z,3.70
2023-04-16T04:59:15.462Z,4.07
2023-04-16T05:02:18.401Z,3.77
2023-04-16T05:05:21.402Z,3.47
2023-04-16T05:08:24.280Z,3.17
2023-04-16T05:11:28.457Z,3.70
2023-04-16T05:14:31.260Z,3.70
2023-04-16T05:17:34.068Z,3.50
2023-04-16T05:20:37.752Z,2.70
2023-04-16T05:23:40.563Z,2.53
2023-04-16T05:26:44.684Z,2.80
2023-04-16T05:29:47.472Z,3.07
2023-04-16T05:32:50.339Z,2.83
2023-04-16T05:35:53.148Z,3.70
2023-04-16T05:38:55.937Z,2.67
2023-04-16T05:42:00.118Z,2.73
2023-04-16T05:45:04.408Z,2.70
2023-04-16T05:48:08.002Z,3.57
2023-04-16T05:51:10.811Z,3.73
2023-04-16T05:54:13.571Z,2.70
2023-04-16T05:57:17.824Z,2.40
2023-04-16T06:00:20.887Z,2.00
2023-04-16T06:03:23.678Z,2.27
2023-04-16T06:06:27.345Z,1.57
2023-04-16T06:09:30.927Z,4.03
2023-04-16T06:12:35.062Z,1.57
2023-04-16T06:15:37.867Z,1.27
2023-04-16T06:18:40.675Z,1.53
2023-04-16T06:21:43.547Z,1.10
2023-04-16T06:24:46.393Z,1.00
2023-04-16T06:27:50.547Z,0.97
2023-04-16T06:30:53.353Z,1.03
2023-04-16T06:33:56.685Z,0.70
2023-04-16T06:36:59.456Z,0.97
2023-04-16T06:40:02.337Z,0.70
2023-04-16T06:43:06.825Z,0.60
2023-04-16T06:46:09.626Z,0.60
2023-04-16T06:49:12.397Z,0.77
2023-04-16T06:52:15.324Z,0.70
2023-04-16T06:55:18.227Z,0.50
2023-04-16T06:58:23.314Z,0.73
2023-04-16T07:01:26.268Z,0.67
2023-04-16T07:04:29.126Z,0.60
2023-04-16T07:07:32.134Z,0.37
2023-04-16T07:10:34.987Z,0.40
2023-04-16T07:13:39.111Z,0.60
2023-04-16T07:16:41.967Z,0.50
2023-04-16T07:19:45.745Z,0.40
2023-04-16T07:22:48.621Z,0.57
2023-04-16T07:25:51.420Z,0.40
2023-04-16T07:28:55.665Z,0.47
2023-04-16T07:31:58.832Z,0.30
2023-04-16T07:35:01.675Z,0.37
2023-04-16T07:38:04.484Z,0.50
2023-04-16T07:41:07.405Z,0.30
2023-04-16T07:44:11.598Z,0.40
2023-04-16T07:47:14.382Z,12.47
2023-04-16T07:50:19.317Z,0.90
2023-04-16T07:53:22.134Z,0.53
2023-04-16T07:56:24.935Z,0.40
2023-04-16T07:59:29.427Z,0.30
2023-04-16T08:02:32.809Z,0.60
2023-04-16T08:05:35.669Z,0.20
2023-04-16T08:08:38.942Z,0.20
2023-04-16T08:11:41.846Z,0.40
2023-04-16T08:14:46.257Z,0.30
2023-04-16T08:17:49.098Z,0.30
2023-04-16T08:20:52.250Z,0.20
2023-04-16T08:23:55.402Z,0.43
2023-04-16T08:27:11.246Z,0.20
2023-04-16T08:30:21.956Z,0.40
2023-04-16T08:33:24.889Z,0.20
2023-04-16T08:36:27.689Z,0.30
2023-04-16T08:39:30.577Z,0.27
2023-04-16T08:42:37.020Z,0.77
2023-04-16T08:45:42.715Z,0.73
2023-04-16T08:48:50.109Z,1.63
2023-04-16T08:51:54.636Z,0.30
2023-04-16T08:55:02.284Z,0.30
2023-04-16T08:58:10.533Z,0.40
2023-04-16T09:01:15.538Z,0.20
2023-04-16T09:04:18.650Z,0.40
2023-04-16T09:07:22.149Z,0.40
2023-04-16T09:10:26.542Z,0.30
2023-04-16T09:13:32.107Z,0.30
2023-04-16T09:16:36.887Z,0.23
2023-04-16T09:19:39.798Z,0.30
2023-04-16T09:22:44.301Z,0.13
2023-04-16T09:25:47.107Z,0.20
2023-04-16T09:28:50.867Z,1.07
2023-04-16T09:32:03.504Z,0.27
2023-04-16T09:35:06.841Z,0.60
2023-04-16T09:38:09.698Z,0.80
2023-04-16T09:41:12.534Z,0.10
2023-04-16T09:44:15.346Z,0.30
2023-04-16T09:47:19.749Z,0.60
2023-04-16T09:50:22.723Z,0.60
2023-04-16T09:53:26.382Z,0.40
2023-04-16T09:56:30.360Z,1.03
2023-04-16T09:59:34.085Z,1.50
2023-04-16T10:02:42.001Z,0.90
2023-04-16T10:05:45.982Z,0.40
2023-04-16T10:08:50.222Z,0.70
2023-04-16T10:11:53.345Z,0.70
2023-04-16T10:14:56.160Z,0.70
2023-04-16T10:18:01.528Z,0.90
2023-04-16T10:21:04.610Z,0.80
2023-04-16T10:24:09.282Z,0.40
2023-04-16T10:27:12.305Z,0.23
2023-04-16T10:30:18.003Z,0.50
2023-04-16T10:33:24.067Z,0.20
2023-04-16T10:36:27.642Z,0.40
2023-04-16T10:39:30.474Z,0.30
2023-04-16T10:42:33.567Z,0.60
2023-04-16T10:45:38.954Z,0.80
2023-04-16T10:48:49.824Z,0.67
2023-04-16T10:51:57.737Z,0.30
2023-04-16T10:55:00.850Z,0.80
2023-04-16T10:58:03.718Z,0.13
2023-04-16T11:01:09.042Z,0.20
2023-04-16T11:04:35.913Z,0.30
2023-04-16T11:07:39.431Z,0.30
2023-04-16T11:10:42.643Z,0.30
2023-04-16T11:13:46.679Z,0.30
2023-04-16T11:16:50.001Z,0.30
2023-04-16T11:19:54.191Z,0.50
2023-04-16T11:22:58.405Z,0.27
2023-04-16T11:26:01.279Z,0.30
2023-04-16T11:29:15.591Z,0.37
2023-04-16T11:32:22.774Z,0.30
2023-04-16T11:35:27.277Z,0.30
2023-04-16T11:38:37.057Z,0.30
2023-04-16T11:41:44.646Z,0.40
2023-04-16T11:44:47.475Z,0.20
2023-04-16T11:47:52.561Z,0.30
2023-04-16T11:50:59.908Z,0.30
2023-04-16T11:54:03.474Z,0.27
2023-04-16T11:57:06.426Z,0.40
2023-04-16T12:00:13.460Z,0.47
2023-04-16T12:03:16.538Z,0.60
2023-04-16T12:06:21.548Z,0.37
2023-04-16T12:09:27.094Z,0.30
2023-04-16T12:12:32.039Z,0.30
2023-04-16T12:15:45.890Z,0.50
2023-04-16T12:19:02.828Z,0.50
2023-04-16T12:22:06.989Z,0.50
2023-04-16T12:25:13.723Z,0.40
2023-04-16T12:28:27.354Z,0.30
2023-04-16T12:31:38.490Z,0.30
2023-04-16T12:34:51.504Z,0.37
2023-04-16T12:37:55.798Z,0.30
2023-04-16T12:40:58.624Z,0.40
2023-04-16T12:44:08.978Z,0.33
2023-04-16T12:47:12.357Z,0.20
2023-04-16T12:50:15.260Z,0.37
2023-04-16T12:53:19.431Z,0.30
2023-04-16T12:56:22.469Z,0.40
2023-04-16T12:59:25.441Z,0.40
2023-04-16T13:02:28.665Z,0.47
2023-04-16T13:05:31.631Z,0.27
2023-04-16T13:08:35.975Z,0.27
2023-04-16T13:11:38.800Z,0.20
2023-04-16T13:14:44.616Z,0.30
2023-04-16T13:17:47.887Z,0.30
2023-04-16T13:20:50.792Z,0.33
2023-04-16T13:23:55.253Z,0.50
2023-04-16T13:26:58.237Z,0.30
2023-04-16T13:30:01.224Z,0.30
2023-04-16T13:33:04.140Z,0.50
2023-04-16T13:36:07.950Z,0.20
2023-04-16T13:39:12.240Z,0.30
2023-04-16T13:42:15.279Z,0.50
2023-04-16T13:45:20.268Z,1.07
2023-04-16T13:48:23.176Z,1.33
2023-04-16T13:51:27.008Z,0.80
2023-04-16T13:54:31.208Z,0.60
2023-04-16T13:57:34.072Z,0.40
2023-04-16T14:00:36.921Z,0.20
2023-04-16T14:03:40.901Z,0.37
2023-04-16T14:06:43.776Z,0.33
2023-04-16T14:09:47.933Z,0.20
2023-04-16T14:12:50.839Z,0.30
2023-04-16T14:15:54.924Z,0.43
2023-04-16T14:18:57.780Z,0.30
2023-04-16T14:22:00.646Z,0.40
2023-04-16T14:25:05.145Z,0.50
2023-04-16T14:28:08.862Z,0.37
2023-04-16T14:31:11.726Z,0.30
2023-04-16T14:34:14.518Z,0.30
2023-04-16T14:37:18.842Z,0.50
2023-04-16T14:40:23.040Z,0.40
2023-04-16T14:43:26.107Z,0.40
2023-04-16T14:46:28.895Z,0.50
2023-04-16T14:49:31.885Z,0.40
2023-04-16T14:52:34.759Z,0.57
2023-04-16T14:55:38.919Z,0.67
2023-04-16T14:58:42.892Z,0.70
2023-04-16T15:01:46.529Z,0.77
2023-04-16T15:04:49.546Z,0.60
2023-04-16T15:07:52.343Z,0.77
2023-04-16T15:10:56.487Z,0.80
2023-04-16T15:13:59.287Z,0.40
2023-04-16T15:17:02.137Z,0.60
2023-04-16T15:20:08.109Z,0.50
2023-04-16T15:23:10.948Z,0.70
2023-04-16T15:26:15.316Z,0.80
2023-04-16T15:29:18.114Z,0.50
2023-04-16T15:32:21.087Z,0.50
2023-04-16T15:35:23.897Z,0.60
2023-04-16T15:38:26.727Z,0.53
2023-04-16T15:41:31.810Z,0.50
2023-04-16T15:44:35.116Z,0.70
2023-04-16T15:47:40.164Z,0.30
2023-04-16T15:50:44.435Z,0.40
2023-04-16T15:53:49.381Z,0.40
2023-04-16T15:56:53.548Z,0.33
2023-04-16T16:00:06.601Z,0.37
2023-04-16T16:03:10.889Z,0.80
2023-04-16T16:06:13.889Z,0.87
2023-04-16T16:09:16.799Z,2.03
2023-04-16T16:12:20.957Z,1.10
2023-04-16T16:15:23.856Z,2.03
2023-04-16T16:18:26.681Z,0.87
2023-04-16T16:21:32.689Z,0.80
2023-04-16T16:24:35.543Z,0.53
2023-04-16T16:27:40.597Z,0.50
2023-04-16T16:30:43.675Z,0.50
2023-04-16T16:33:46.504Z,3.03
2023-04-16T16:36:49.708Z,0.70
2023-04-16T16:39:52.529Z,0.40
2023-04-16T16:42:56.859Z,0.40
2023-04-16T16:45:59.687Z,0.30
2023-04-16T16:49:04.327Z,0.60
2023-04-16T16:52:07.134Z,0.40
2023-04-16T16:55:11.086Z,0.60
2023-04-16T16:58:15.423Z,0.73
2023-04-16T17:01:18.868Z,0.40
2023-04-16T17:04:21.848Z,0.40
2023-04-16T17:07:25.136Z,0.60
2023-04-16T17:10:27.961Z,0.50
2023-04-16T17:13:32.564Z,0.70
2023-04-16T17:16:35.448Z,1.00
2023-04-16T17:19:38.273Z,0.60
2023-04-16T17:22:41.125Z,0.47
2023-04-16T17:25:43.976Z,0.77
2023-04-16T17:28:48.171Z,0.93
2023-04-16T17:31:51.096Z,0.90
2023-04-16T17:34:56.125Z,0.80
2023-04-16T17:37:58.923Z,0.70
2023-04-16T17:41:01.748Z,0.60
2023-04-16T17:44:06.233Z,0.80
2023-04-16T17:47:09.019Z,0.73
2023-04-16T17:50:12.888Z,0.70
2023-04-16T17:53:15.682Z,0.70
2023-04-16T17:56:18.624Z,0.63
2023-04-16T17:59:23.029Z,0.57
2023-04-16T18:02:26.306Z,1.00
2023-04-16T18:05:29.318Z,0.60
2023-04-16T18:08:32.160Z,0.60
2023-04-16T18:11:35.765Z,0.77
2023-04-16T18:14:40.733Z,0.63
2023-04-16T18:17:43.670Z,1.10
2023-04-16T18:20:46.566Z,1.07
2023-04-16T18:23:49.834Z,1.30
2023-04-16T18:26:53.593Z,1.30
2023-04-16T18:29:59.561Z,1.43
2023-04-16T18:36:08.530Z,1.30
2023-04-16T18:39:11.317Z,1.80
2023-04-16T18:42:14.133Z,2.13
2023-04-16T18:45:21.867Z,2.07
2023-04-16T18:48:25.066Z,1.53
2023-04-16T18:51:28.133Z,2.33
2023-04-16T18:54:30.926Z,1.50
2023-04-16T18:57:33.720Z,1.60
2023-04-16T19:00:37.967Z,0.87
2023-04-16T19:03:40.976Z,1.10
2023-04-16T19:06:44.936Z,0.80
2023-04-16T19:09:47.748Z,1.07
2023-04-16T19:12:50.592Z,1.07
2023-04-16T19:15:58.444Z,0.97
2023-04-16T19:19:01.538Z,0.80
2023-04-16T19:22:04.563Z,1.40
2023-04-16T19:25:08.201Z,1.10
2023-04-16T19:28:11.003Z,1.40
2023-04-16T19:31:15.342Z,1.40
2023-04-16T19:34:18.255Z,1.23
2023-04-16T19:37:21.161Z,1.83
2023-04-16T19:40:23.925Z,1.40
2023-04-16T19:43:28.390Z,1.07
2023-04-16T19:46:33.828Z,1.10
2023-04-16T19:49:36.643Z,1.90
2023-04-16T19:52:39.499Z,1.60
2023-04-16T19:55:42.819Z,1.23
2023-04-16T19:58:45.719Z,1.23
2023-04-16T20:01:50.146Z,1.43
2023-04-16T20:04:54.490Z,1.73
2023-04-16T20:08:00.805Z,2.33
2023-04-16T20:11:03.797Z,1.40
2023-04-16T20:14:06.824Z,1.50
2023-04-16T20:17:11.321Z,1.53
2023-04-16T20:20:15.816Z,1.10
2023-04-16T20:23:18.742Z,1.13
2023-04-16T20:26:23.903Z,2.23
2023-04-16T20:29:26.989Z,1.80
2023-04-16T20:32:31.321Z,1.77
2023-04-16T20:35:34.154Z,1.47
2023-04-16T20:38:37.570Z,1.17
2023-04-16T20:41:43.751Z,2.00
2023-04-16T20:44:50.613Z,1.57
2023-04-16T20:47:54.899Z,1.40
2023-04-16T20:50:59.784Z,1.60
2023-04-16T20:54:02.877Z,1.33
2023-04-16T20:57:05.795Z,1.70
2023-04-16T21:00:11.867Z,1.80
2023-04-16T21:03:16.350Z,1.97
2023-04-16T21:06:22.585Z,1.87
2023-04-16T21:09:25.487Z,1.50
2023-04-16T21:12:28.415Z,2.03
2023-04-16T21:15:32.220Z,1.33
2023-04-16T21:18:36.946Z,1.50
2023-04-16T21:21:39.915Z,1.50
2023-04-16T21:24:42.738Z,1.47
2023-04-16T21:27:45.553Z,1.50
2023-04-16T21:30:52.027Z,1.70
2023-04-16T21:33:56.191Z,1.33
2023-04-16T21:36:59.191Z,1.37
2023-04-16T21:40:02.118Z,1.40
2023-04-16T21:43:04.974Z,1.30
2023-04-16T21:46:07.808Z,1.37
2023-04-16T21:49:12.179Z,1.60
2023-04-16T21:52:18.188Z,1.60
2023-04-16T21:55:21.343Z,1.20
2023-04-16T21:58:25.624Z,1.30
2023-04-16T22:01:28.609Z,1.37
2023-04-16T22:04:38.372Z,1.40
2023-04-16T22:07:41.540Z,1.27
2023-04-16T22:10:44.333Z,1.43
2023-04-16T22:13:47.715Z,1.23
2023-04-16T22:16:51.629Z,1.40
2023-04-16T22:19:57.190Z,1.40
2023-04-16T22:22:59.996Z,1.17
2023-04-16T22:26:03.009Z,1.37
2023-04-16T22:29:05.959Z,1.67
2023-04-16T22:32:08.788Z,1.30
2023-04-16T22:35:13.025Z,1.20
2023-04-16T22:38:16.428Z,1.20
2023-04-16T22:41:19.261Z,0.83
2023-04-16T22:44:22.053Z,0.87
2023-04-16T22:47:24.904Z,0.93
2023-04-16T22:50:31.279Z,0.90
2023-04-16T22:53:34.470Z,1.00
2023-04-16T22:56:37.265Z,0.90
2023-04-16T22:59:40.053Z,1.00
2023-04-16T23:02:43.183Z,0.87
2023-04-16T23:05:47.464Z,0.67
2023-04-16T23:08:50.354Z,0.70
2023-04-16T23:11:53.194Z,0.80
2023-04-16T23:14:56.264Z,0.90
2023-04-16T23:17:59.370Z,0.50
2023-04-16T23:21:03.614Z,0.67
2023-04-16T23:24:06.914Z,0.73
2023-04-16T23:27:09.702Z,0.80
2023-04-16T23:30:13.238Z,0.80
2023-04-16T23:33:16.052Z,0.57
2023-04-16T23:36:20.210Z,1.20
2023-04-16T23:39:23.040Z,0.70
2023-04-16T23:42:25.869Z,0.70
2023-04-16T23:45:28.664Z,0.63
2023-04-16T23:48:31.510Z,0.90
2023-04-16T23:51:35.641Z,0.70
2023-04-16T23:54:38.464Z,0.90
2023-04-16T23:57:41.275Z,0.90
